OICS  Sanandaj Airport

Add Bookmark

Iran

Status IATA
Operational SDG
Latitude Longitude
35° 14' 45" N 47° 0' 33" E
35.245899 47.009201
Local (DST + 5) UTC (GMT + 4)
Oct 31, 2014 04:53 Oct 31, 2014 13:23
Sunrise-Sunset Local UTC
Begin Civil Twilight 06:15 02:45
Sunrise 06:41 03:11
Sunset 05:29 13:59
End Civil Twilight 05:56 14:26

Current Weather

METAR Observed VFR
OICS 311253Z 25008KT 9999 FEW035CB SCT040 SCT200 18/02 Q1014 Fri, Oct 31, 2014 @ 12:53 UTC
(30 Minutes ago)
Visual Flight Rules
Wind Visibility Clouds Conditions
250° at 8 knots (15 kph) 10 km or more
  • Few at 3,500' AGL
  • Scattered at 4,000' AGL
  • Scattered at 20,000' AGL
  • No significant weather
Temperatures Readings Precipitation
Current Temp 18°C (64°F)
Dewpoint 2°C (36°F)
Humidity 34%
Altimeter 29.94"Hg
Sea Level Pressure 1014mb
Field Elevation 4504.59'
None Recorded

Additional weather within a 185.2km radius of OICS

Map ICAO Location
OICC 100.9km S (172°)
OIGK 107.4km S (175°)
OIHH 146.5km E (106°)
ORSU 157.2km W (283°)

24 Hour Weather History

Loading
-

24 Hour Weather Graphs

Loading
-

CheckWX.com is intended as a tool to help pilots better visualize weather data. It is not intended as a substitute for an official weather briefing obtained from a Flight Service Station. CheckWX.com does not meet the FAA requirements for an official pre-flight weather briefing. Therefore, it's important that pilots still call and obtain an official FSS pre-flight weather briefing.